sensor_id;sensor_type;location;lat;lon;timestamp;temperature;humidity
16388;DHT22;8303;53.446;9.988;2022-09-09T04:48:25;12.60;1.00
16388;DHT22;8303;53.446;9.988;2022-09-09T04:50:57;12.60;1.00
16388;DHT22;8303;53.446;9.988;2022-09-09T04:53:25;12.60;1.00
16388;DHT22;8303;53.446;9.988;2022-09-09T04:55:52;12.50;1.00
16388;DHT22;8303;53.446;9.988;2022-09-09T04:58:19;12.50;1.00
16388;DHT22;8303;53.446;9.988;2022-09-09T05:00:48;12.50;4.20
16388;DHT22;8303;53.446;9.988;2022-09-09T05:03:14;12.50;1.00
16388;DHT22;8303;53.446;9.988;2022-09-09T05:05:42;12.40;1.00
16388;DHT22;8303;53.446;9.988;2022-09-09T05:08:11;12.40;1.00
16388;DHT22;8303;53.446;9.988;2022-09-09T05:10:38;12.30;1.00
16388;DHT22;8303;53.446;9.988;2022-09-09T05:13:07;12.30;1.00
16388;DHT22;8303;53.446;9.988;2022-09-09T05:15:34;12.30;1.00
16388;DHT22;8303;53.446;9.988;2022-09-09T05:18:01;12.30;1.00
16388;DHT22;8303;53.446;9.988;2022-09-09T05:20:28;12.30;1.00
16388;DHT22;8303;53.446;9.988;2022-09-09T05:22:57;12.40;1.00
16388;DHT22;8303;53.446;9.988;2022-09-09T05:25:23;12.50;1.00
16388;DHT22;8303;53.446;9.988;2022-09-09T05:27:51;12.50;1.00
16388;DHT22;8303;53.446;9.988;2022-09-09T05:30:19;12.50;1.00
16388;DHT22;8303;53.446;9.988;2022-09-09T05:32:45;12.60;1.00
16388;DHT22;8303;53.446;9.988;2022-09-09T05:35:13;12.60;1.00
16388;DHT22;8303;53.446;9.988;2022-09-09T05:37:40;12.70;1.10
16388;DHT22;8303;53.446;9.988;2022-09-09T05:40:08;12.80;1.00
16388;DHT22;8303;53.446;9.988;2022-09-09T05:42:36;12.90;2.80
16388;DHT22;8303;53.446;9.988;2022-09-09T05:45:04;12.90;9.20
16388;DHT22;8303;53.446;9.988;2022-09-09T05:47:31;13.00;14.70
16388;DHT22;8303;53.446;9.988;2022-09-09T05:49:57;13.10;7.30
16388;DHT22;8303;53.446;9.988;2022-09-09T05:52:24;13.10;16.20
16388;DHT22;8303;53.446;9.988;2022-09-09T05:54:52;13.30;11.30
16388;DHT22;8303;53.446;9.988;2022-09-09T05:57:21;13.30;20.40
16388;DHT22;8303;53.446;9.988;2022-09-09T05:59:48;13.40;23.90
16388;DHT22;8303;53.446;9.988;2022-09-09T06:02:15;13.50;22.00
16388;DHT22;8303;53.446;9.988;2022-09-09T06:04:42;13.50;22.60
16388;DHT22;8303;53.446;9.988;2022-09-09T06:07:08;13.40;21.90
16388;DHT22;8303;53.446;9.988;2022-09-09T06:09:35;13.50;23.60
16388;DHT22;8303;53.446;9.988;2022-09-09T06:12:02;13.60;17.90
16388;DHT22;8303;53.446;9.988;2022-09-09T06:14:31;13.60;14.50
16388;DHT22;8303;53.446;9.988;2022-09-09T06:16:57;13.70;21.20
16388;DHT22;8303;53.446;9.988;2022-09-09T06:19:24;13.60;13.40
16388;DHT22;8303;53.446;9.988;2022-09-09T06:21:51;13.80;16.90
16388;DHT22;8303;53.446;9.988;2022-09-09T06:24:18;13.80;17.50
16388;DHT22;8303;53.446;9.988;2022-09-09T06:26:45;13.90;16.50
16388;DHT22;8303;53.446;9.988;2022-09-09T06:29:12;14.00;17.00
16388;DHT22;8303;53.446;9.988;2022-09-09T06:31:40;14.10;16.20
16388;DHT22;8303;53.446;9.988;2022-09-09T06:34:08;14.20;25.60
16388;DHT22;8303;53.446;9.988;2022-09-09T06:36:36;14.20;16.20
16388;DHT22;8303;53.446;9.988;2022-09-09T06:39:04;14.20;6.60
16388;DHT22;8303;53.446;9.988;2022-09-09T06:41:32;14.30;3.10
16388;DHT22;8303;53.446;9.988;2022-09-09T06:43:59;14.50;8.30
16388;DHT22;8303;53.446;9.988;2022-09-09T06:46:27;14.60;8.00
16388;DHT22;8303;53.446;9.988;2022-09-09T06:48:57;14.80;7.40
16388;DHT22;8303;53.446;9.988;2022-09-09T06:51:28;14.90;2.80
16388;DHT22;8303;53.446;9.988;2022-09-09T06:53:56;15.00;1.00
16388;DHT22;8303;53.446;9.988;2022-09-09T06:56:25;15.00;1.00
16388;DHT22;8303;53.446;9.988;2022-09-09T06:58:54;15.00;1.00
16388;DHT22;8303;53.446;9.988;2022-09-09T07:01:23;15.20;1.00
16388;DHT22;8303;53.446;9.988;2022-09-09T07:03:51;15.20;1.00
16388;DHT22;8303;53.446;9.988;2022-09-09T07:06:22;15.30;1.00
16388;DHT22;8303;53.446;9.988;2022-09-09T07:08:50;15.30;1.00
16388;DHT22;8303;53.446;9.988;2022-09-09T07:11:18;15.40;1.00
16388;DHT22;8303;53.446;9.988;2022-09-09T07:13:45;15.40;1.00
16388;DHT22;8303;53.446;9.988;2022-09-09T07:16:14;15.50;1.00
16388;DHT22;8303;53.446;9.988;2022-09-09T07:18:41;15.50;1.00
16388;DHT22;8303;53.446;9.988;2022-09-09T07:21:09;15.50;1.00
16388;DHT22;8303;53.446;9.988;2022-09-09T07:23:39;15.70;1.00
16388;DHT22;8303;53.446;9.988;2022-09-09T07:26:08;15.80;1.00
16388;DHT22;8303;53.446;9.988;2022-09-09T07:28:36;15.90;1.00
16388;DHT22;8303;53.446;9.988;2022-09-09T07:31:04;15.80;1.00
16388;DHT22;8303;53.446;9.988;2022-09-09T07:33:33;16.00;1.00
16388;DHT22;8303;53.446;9.988;2022-09-09T07:36:05;16.00;1.00
16388;DHT22;8303;53.446;9.988;2022-09-09T07:38:33;16.10;1.00
16388;DHT22;8303;53.446;9.988;2022-09-09T07:41:06;16.20;1.00
16388;DHT22;8303;53.446;9.988;2022-09-09T07:43:34;16.20;1.00
16388;DHT22;8303;53.446;9.988;2022-09-09T07:46:01;16.20;1.00
16388;DHT22;8303;53.446;9.988;2022-09-09T07:48:28;16.40;1.00
16388;DHT22;8303;53.446;9.988;2022-09-09T07:51:04;16.40;1.00
16388;DHT22;8303;53.446;9.988;2022-09-09T07:53:32;16.30;1.00
16388;DHT22;8303;53.446;9.988;2022-09-09T07:56:04;16.30;1.00
16388;DHT22;8303;53.446;9.988;2022-09-09T07:58:31;16.30;1.00
16388;DHT22;8303;53.446;9.988;2022-09-09T08:00:58;16.40;1.00
16388;DHT22;8303;53.446;9.988;2022-09-09T08:03:25;16.50;1.00
16388;DHT22;8303;53.446;9.988;2022-09-09T08:05:52;16.50;1.00
16388;DHT22;8303;53.446;9.988;2022-09-09T08:08:19;16.60;1.00
16388;DHT22;8303;53.446;9.988;2022-09-09T08:10:46;16.80;1.00
16388;DHT22;8303;53.446;9.988;2022-09-09T08:13:14;16.90;1.00
16388;DHT22;8303;53.446;9.988;2022-09-09T08:15:41;16.90;1.00
16388;DHT22;8303;53.446;9.988;2022-09-09T08:18:08;17.20;1.00
16388;DHT22;8303;53.446;9.988;2022-09-09T08:20:36;17.30;1.00
16388;DHT22;8303;53.446;9.988;2022-09-09T08:23:03;17.30;1.00
16388;DHT22;8303;53.446;9.988;2022-09-09T08:25:30;17.40;1.00
16388;DHT22;8303;53.446;9.988;2022-09-09T08:27:57;17.50;1.00
16388;DHT22;8303;53.446;9.988;2022-09-09T08:30:25;17.50;1.00
16388;DHT22;8303;53.446;9.988;2022-09-09T08:32:52;17.50;1.00
16388;DHT22;8303;53.446;9.988;2022-09-09T08:35:19;17.50;1.00
16388;DHT22;8303;53.446;9.988;2022-09-09T08:37:46;17.60;1.00
16388;DHT22;8303;53.446;9.988;2022-09-09T08:40:19;17.70;1.00
16388;DHT22;8303;53.446;9.988;2022-09-09T08:42:49;17.80;1.00
16388;DHT22;8303;53.446;9.988;2022-09-09T08:45:25;18.00;1.00
16388;DHT22;8303;53.446;9.988;2022-09-09T08:50:43;18.60;99.90
16388;DHT22;8303;53.446;9.988;2022-09-09T08:53:17;18.60;99.90
16388;DHT22;8303;53.446;9.988;2022-09-09T08:55:47;18.90;99.90
16388;DHT22;8303;53.446;9.988;2022-09-09T08:58:17;19.00;99.90
16388;DHT22;8303;53.446;9.988;2022-09-09T09:00:54;19.10;99.90
16388;DHT22;8303;53.446;9.988;2022-09-09T09:03:31;19.30;99.90
16388;DHT22;8303;53.446;9.988;2022-09-09T09:06:06;19.50;99.90
16388;DHT22;8303;53.446;9.988;2022-09-09T09:08:39;19.50;99.90
16388;DHT22;8303;53.446;9.988;2022-09-09T09:11:08;19.50;99.90
16388;DHT22;8303;53.446;9.988;2022-09-09T09:13:41;19.30;99.90
16388;DHT22;8303;53.446;9.988;2022-09-09T09:16:18;19.50;99.90
16388;DHT22;8303;53.446;9.988;2022-09-09T09:18:46;19.60;99.90
16388;DHT22;8303;53.446;9.988;2022-09-09T09:21:17;19.70;99.90
16388;DHT22;8303;53.446;9.988;2022-09-09T09:23:51;19.90;99.90
16388;DHT22;8303;53.446;9.988;2022-09-09T09:26:21;19.90;99.90
16388;DHT22;8303;53.446;9.988;2022-09-09T09:28:54;19.90;99.90
16388;DHT22;8303;53.446;9.988;2022-09-09T09:31:23;20.00;99.90
16388;DHT22;8303;53.446;9.988;2022-09-09T09:33:53;19.70;99.90
16388;DHT22;8303;53.446;9.988;2022-09-09T09:36:21;19.60;99.90
16388;DHT22;8303;53.446;9.988;2022-09-09T09:38:54;19.70;99.90
16388;DHT22;8303;53.446;9.988;2022-09-09T09:41:35;19.70;99.90
16388;DHT22;8303;53.446;9.988;2022-09-09T09:44:03;19.80;99.90
16388;DHT22;8303;53.446;9.988;2022-09-09T09:46:31;20.10;99.90
16388;DHT22;8303;53.446;9.988;2022-09-09T09:48:59;20.30;99.90
16388;DHT22;8303;53.446;9.988;2022-09-09T09:51:28;20.10;99.90
16388;DHT22;8303;53.446;9.988;2022-09-09T09:54:08;20.20;99.90
16388;DHT22;8303;53.446;9.988;2022-09-09T09:56:36;20.40;99.90
16388;DHT22;8303;53.446;9.988;2022-09-09T09:59:04;20.40;99.90
16388;DHT22;8303;53.446;9.988;2022-09-09T10:01:33;20.40;99.90
16388;DHT22;8303;53.446;9.988;2022-09-09T10:04:02;20.40;99.90
16388;DHT22;8303;53.446;9.988;2022-09-09T10:06:31;20.50;99.90
16388;DHT22;8303;53.446;9.988;2022-09-09T10:08:59;20.50;99.10
16388;DHT22;8303;53.446;9.988;2022-09-09T10:11:35;20.50;99.90
16388;DHT22;8303;53.446;9.988;2022-09-09T10:14:15;20.50;99.90
16388;DHT22;8303;53.446;9.988;2022-09-09T10:16:59;20.40;99.90
16388;DHT22;8303;53.446;9.988;2022-09-09T10:19:31;20.40;99.90
16388;DHT22;8303;53.446;9.988;2022-09-09T10:22:21;20.50;1.60
16388;DHT22;8303;53.446;9.988;2022-09-09T10:25:13;20.60;1.00
16388;DHT22;8303;53.446;9.988;2022-09-09T10:27:53;20.50;1.00
16388;DHT22;8303;53.446;9.988;2022-09-09T10:30:27;20.60;1.00
16388;DHT22;8303;53.446;9.988;2022-09-09T10:33:07;20.70;1.00
16388;DHT22;8303;53.446;9.988;2022-09-09T10:35:40;20.60;1.00
16388;DHT22;8303;53.446;9.988;2022-09-09T10:38:17;20.60;1.00
16388;DHT22;8303;53.446;9.988;2022-09-09T10:41:00;20.60;1.00
16388;DHT22;8303;53.446;9.988;2022-09-09T10:43:39;20.40;1.00
16388;DHT22;8303;53.446;9.988;2022-09-09T10:46:14;20.40;1.00
16388;DHT22;8303;53.446;9.988;2022-09-09T10:48:57;20.40;1.00
16388;DHT22;8303;53.446;9.988;2022-09-09T10:51:36;20.50;1.00
16388;DHT22;8303;53.446;9.988;2022-09-09T10:54:29;20.80;1.00
16388;DHT22;8303;53.446;9.988;2022-09-09T10:57:01;21.00;1.00
16388;DHT22;8303;53.446;9.988;2022-09-09T10:59:33;21.20;1.00
16388;DHT22;8303;53.446;9.988;2022-09-09T11:02:05;21.40;1.00
16388;DHT22;8303;53.446;9.988;2022-09-09T11:04:43;21.60;1.00
16388;DHT22;8303;53.446;9.988;2022-09-09T11:07:23;21.70;99.90
16388;DHT22;8303;53.446;9.988;2022-09-09T11:09:56;21.60;99.90
16388;DHT22;8303;53.446;9.988;2022-09-09T11:12:24;21.80;99.90
16388;DHT22;8303;53.446;9.988;2022-09-09T11:14:57;21.90;99.90
16388;DHT22;8303;53.446;9.988;2022-09-09T11:17:29;22.00;99.90
16388;DHT22;8303;53.446;9.988;2022-09-09T11:20:00;21.90;99.90
16388;DHT22;8303;53.446;9.988;2022-09-09T11:22:30;22.20;99.90
16388;DHT22;8303;53.446;9.988;2022-09-09T11:25:05;22.20;99.90
16388;DHT22;8303;53.446;9.988;2022-09-09T11:27:41;22.20;99.90
16388;DHT22;8303;53.446;9.988;2022-09-09T11:30:20;22.10;99.90
16388;DHT22;8303;53.446;9.988;2022-09-09T11:36:05;21.90;99.90
16388;DHT22;8303;53.446;9.988;2022-09-09T11:38:41;22.00;99.90
16388;DHT22;8303;53.446;9.988;2022-09-09T11:41:10;22.30;99.90
16388;DHT22;8303;53.446;9.988;2022-09-09T11:43:41;22.80;99.90
16388;DHT22;8303;53.446;9.988;2022-09-09T11:46:08;22.60;99.90
16388;DHT22;8303;53.446;9.988;2022-09-09T11:48:38;22.40;99.90
16388;DHT22;8303;53.446;9.988;2022-09-09T11:51:08;22.30;99.90
16388;DHT22;8303;53.446;9.988;2022-09-09T11:53:48;22.20;99.90
16388;DHT22;8303;53.446;9.988;2022-09-09T11:56:25;22.20;99.90
16388;DHT22;8303;53.446;9.988;2022-09-09T11:58:59;22.20;99.90
16388;DHT22;8303;53.446;9.988;2022-09-09T12:01:41;22.20;99.90
16388;DHT22;8303;53.446;9.988;2022-09-09T12:04:28;22.30;99.90
16388;DHT22;8303;53.446;9.988;2022-09-09T12:06:59;22.10;99.90
16388;DHT22;8303;53.446;9.988;2022-09-09T12:09:33;22.00;99.90
16388;DHT22;8303;53.446;9.988;2022-09-09T12:12:27;22.10;99.90
16388;DHT22;8303;53.446;9.988;2022-09-09T12:14:57;22.20;99.90
16388;DHT22;8303;53.446;9.988;2022-09-09T12:17:26;22.20;99.90
16388;DHT22;8303;53.446;9.988;2022-09-09T12:20:08;22.00;99.90
16388;DHT22;8303;53.446;9.988;2022-09-09T12:22:46;21.80;99.90
16388;DHT22;8303;53.446;9.988;2022-09-09T12:25:21;21.60;99.90
16388;DHT22;8303;53.446;9.988;2022-09-09T12:28:04;21.50;99.90
16388;DHT22;8303;53.446;9.988;2022-09-09T12:30:37;21.20;99.90
16388;DHT22;8303;53.446;9.988;2022-09-09T12:33:11;21.20;99.90
16388;DHT22;8303;53.446;9.988;2022-09-09T12:35:40;21.00;99.90
16388;DHT22;8303;53.446;9.988;2022-09-09T12:38:13;20.80;99.90
16388;DHT22;8303;53.446;9.988;2022-09-09T12:40:41;20.60;99.90
16388;DHT22;8303;53.446;9.988;2022-09-09T12:43:17;20.20;1.00
16388;DHT22;8303;53.446;9.988;2022-09-09T12:45:45;19.80;1.00
16388;DHT22;8303;53.446;9.988;2022-09-09T12:48:18;19.50;1.00
16388;DHT22;8303;53.446;9.988;2022-09-09T12:50:49;19.50;99.90
16388;DHT22;8303;53.446;9.988;2022-09-09T12:53:22;19.30;99.90
16388;DHT22;8303;53.446;9.988;2022-09-09T12:55:54;19.20;99.90
16388;DHT22;8303;53.446;9.988;2022-09-09T12:58:23;19.10;99.90
16388;DHT22;8303;53.446;9.988;2022-09-09T13:00:52;19.10;99.90
16388;DHT22;8303;53.446;9.988;2022-09-09T13:03:21;19.20;99.90
16388;DHT22;8303;53.446;9.988;2022-09-09T13:05:48;19.10;99.90
16388;DHT22;8303;53.446;9.988;2022-09-09T13:08:17;18.90;99.90
16388;DHT22;8303;53.446;9.988;2022-09-09T13:10:49;18.70;1.00
16388;DHT22;8303;53.446;9.988;2022-09-09T13:13:21;18.50;1.00
16388;DHT22;8303;53.446;9.988;2022-09-09T13:15:51;18.30;1.00
16388;DHT22;8303;53.446;9.988;2022-09-09T13:18:22;18.00;1.00
16388;DHT22;8303;53.446;9.988;2022-09-09T13:20:50;17.70;1.00
16388;DHT22;8303;53.446;9.988;2022-09-09T13:23:20;17.50;1.00
16388;DHT22;8303;53.446;9.988;2022-09-09T13:25:55;17.30;1.00
16388;DHT22;8303;53.446;9.988;2022-09-09T13:28:25;17.20;1.00
16388;DHT22;8303;53.446;9.988;2022-09-09T13:30:59;17.20;1.00
16388;DHT22;8303;53.446;9.988;2022-09-09T13:33:32;17.20;1.00
16388;DHT22;8303;53.446;9.988;2022-09-09T13:36:01;17.20;1.00
16388;DHT22;8303;53.446;9.988;2022-09-09T13:38:32;17.20;1.00
16388;DHT22;8303;53.446;9.988;2022-09-09T13:41:01;17.20;1.00
16388;DHT22;8303;53.446;9.988;2022-09-09T13:43:31;17.20;1.00
16388;DHT22;8303;53.446;9.988;2022-09-09T13:46:01;17.20;1.00
16388;DHT22;8303;53.446;9.988;2022-09-09T13:48:28;17.20;1.00
16388;DHT22;8303;53.446;9.988;2022-09-09T13:50:57;17.20;1.00
16388;DHT22;8303;53.446;9.988;2022-09-09T13:53:24;17.20;1.00
16388;DHT22;8303;53.446;9.988;2022-09-09T13:55:52;17.10;1.00
16388;DHT22;8303;53.446;9.988;2022-09-09T13:58:19;17.00;1.00
16388;DHT22;8303;53.446;9.988;2022-09-09T14:00:48;17.00;1.00
16388;DHT22;8303;53.446;9.988;2022-09-09T14:03:15;16.90;1.00
16388;DHT22;8303;53.446;9.988;2022-09-09T14:05:43;16.90;1.00
16388;DHT22;8303;53.446;9.988;2022-09-09T14:08:15;16.90;1.00
16388;DHT22;8303;53.446;9.988;2022-09-09T14:10:42;16.70;1.00
16388;DHT22;8303;53.446;9.988;2022-09-09T14:13:10;16.70;1.00
16388;DHT22;8303;53.446;9.988;2022-09-09T14:15:37;16.60;1.00
16388;DHT22;8303;53.446;9.988;2022-09-09T14:18:04;16.50;1.00
16388;DHT22;8303;53.446;9.988;2022-09-09T14:20:31;16.40;1.00
16388;DHT22;8303;53.446;9.988;2022-09-09T14:22:58;16.40;1.00
16388;DHT22;8303;53.446;9.988;2022-09-09T14:25:25;16.30;1.00
16388;DHT22;8303;53.446;9.988;2022-09-09T14:27:52;16.30;1.00
16388;DHT22;8303;53.446;9.988;2022-09-09T14:30:20;16.30;1.00
16388;DHT22;8303;53.446;9.988;2022-09-09T14:32:47;16.20;1.00
16388;DHT22;8303;53.446;9.988;2022-09-09T14:35:13;16.20;1.00
16388;DHT22;8303;53.446;9.988;2022-09-09T14:37:40;16.10;1.00
16388;DHT22;8303;53.446;9.988;2022-09-09T14:40:08;16.10;1.00
16388;DHT22;8303;53.446;9.988;2022-09-09T14:42:34;16.00;1.00
16388;DHT22;8303;53.446;9.988;2022-09-09T14:45:01;15.90;1.00
16388;DHT22;8303;53.446;9.988;2022-09-09T14:47:29;15.90;1.00
16388;DHT22;8303;53.446;9.988;2022-09-09T14:49:56;16.00;1.00
16388;DHT22;8303;53.446;9.988;2022-09-09T14:52:23;16.00;1.00
16388;DHT22;8303;53.446;9.988;2022-09-09T14:54:51;16.00;1.00
16388;DHT22;8303;53.446;9.988;2022-09-09T14:57:17;16.10;1.00
16388;DHT22;8303;53.446;9.988;2022-09-09T14:59:44;16.20;1.00
16388;DHT22;8303;53.446;9.988;2022-09-09T15:02:11;16.20;1.00
16388;DHT22;8303;53.446;9.988;2022-09-09T15:04:40;16.20;1.00
16388;DHT22;8303;53.446;9.988;2022-09-09T15:07:07;16.20;1.00
16388;DHT22;8303;53.446;9.988;2022-09-09T15:09:34;16.10;1.00
16388;DHT22;8303;53.446;9.988;2022-09-09T15:12:02;16.20;1.00
16388;DHT22;8303;53.446;9.988;2022-09-09T15:14:30;16.20;1.00
16388;DHT22;8303;53.446;9.988;2022-09-09T15:16:57;16.40;1.00
16388;DHT22;8303;53.446;9.988;2022-09-09T15:19:24;16.50;1.00
16388;DHT22;8303;53.446;9.988;2022-09-09T15:21:52;16.50;1.00
16388;DHT22;8303;53.446;9.988;2022-09-09T15:24:19;16.60;1.00
16388;DHT22;8303;53.446;9.988;2022-09-09T15:26:46;16.80;1.00
16388;DHT22;8303;53.446;9.988;2022-09-09T15:29:13;16.90;1.00
16388;DHT22;8303;53.446;9.988;2022-09-09T15:31:40;17.10;1.00
16388;DHT22;8303;53.446;9.988;2022-09-09T15:34:08;17.30;1.00
16388;DHT22;8303;53.446;9.988;2022-09-09T15:36:36;17.50;1.00
16388;DHT22;8303;53.446;9.988;2022-09-09T15:39:06;17.70;1.00
16388;DHT22;8303;53.446;9.988;2022-09-09T15:41:33;17.90;1.00
16388;DHT22;8303;53.446;9.988;2022-09-09T15:44:00;18.20;1.00
16388;DHT22;8303;53.446;9.988;2022-09-09T15:46:30;18.30;99.90
16388;DHT22;8303;53.446;9.988;2022-09-09T15:48:58;18.20;99.90
16388;DHT22;8303;53.446;9.988;2022-09-09T15:51:29;18.10;99.90
16388;DHT22;8303;53.446;9.988;2022-09-09T15:53:57;17.90;99.90
16388;DHT22;8303;53.446;9.988;2022-09-09T15:56:27;18.10;99.90
16388;DHT22;8303;53.446;9.988;2022-09-09T15:58:56;18.60;99.90
16388;DHT22;8303;53.446;9.988;2022-09-09T16:01:24;19.90;99.90
16388;DHT22;8303;53.446;9.988;2022-09-09T16:03:51;21.90;1.00
16388;DHT22;8303;53.446;9.988;2022-09-09T16:06:20;23.50;1.00
16388;DHT22;8303;53.446;9.988;2022-09-09T16:08:49;24.50;1.00
16388;DHT22;8303;53.446;9.988;2022-09-09T16:11:18;24.00;1.00
16388;DHT22;8303;53.446;9.988;2022-09-09T16:13:48;22.90;1.00
16388;DHT22;8303;53.446;9.988;2022-09-09T16:16:18;21.70;1.00
16388;DHT22;8303;53.446;9.988;2022-09-09T16:18:46;20.90;1.00
16388;DHT22;8303;53.446;9.988;2022-09-09T16:21:15;20.50;1.00
16388;DHT22;8303;53.446;9.988;2022-09-09T16:23:42;20.10;1.00
16388;DHT22;8303;53.446;9.988;2022-09-09T16:26:11;19.70;1.00
16388;DHT22;8303;53.446;9.988;2022-09-09T16:28:38;19.40;1.00
16388;DHT22;8303;53.446;9.988;2022-09-09T16:31:07;19.30;1.00
16388;DHT22;8303;53.446;9.988;2022-09-09T16:33:35;18.90;1.70
16388;DHT22;8303;53.446;9.988;2022-09-09T16:36:05;18.70;99.90
16388;DHT22;8303;53.446;9.988;2022-09-09T16:38:33;18.50;99.90
16388;DHT22;8303;53.446;9.988;2022-09-09T16:41:01;18.30;99.90
16388;DHT22;8303;53.446;9.988;2022-09-09T16:43:28;18.10;99.90
16388;DHT22;8303;53.446;9.988;2022-09-09T16:45:55;18.00;99.90
16388;DHT22;8303;53.446;9.988;2022-09-09T16:48:23;17.80;99.90
16388;DHT22;8303;53.446;9.988;2022-09-09T16:50:50;17.70;99.90
16388;DHT22;8303;53.446;9.988;2022-09-09T16:53:16;17.50;99.90
16388;DHT22;8303;53.446;9.988;2022-09-09T16:55:43;17.50;99.90
16388;DHT22;8303;53.446;9.988;2022-09-09T16:58:10;17.20;1.00
16388;DHT22;8303;53.446;9.988;2022-09-09T17:00:37;17.10;1.00
16388;DHT22;8303;53.446;9.988;2022-09-09T17:03:04;17.00;1.00
16388;DHT22;8303;53.446;9.988;2022-09-09T17:05:33;17.00;1.00
16388;DHT22;8303;53.446;9.988;2022-09-09T17:08:05;16.90;1.00
16388;DHT22;8303;53.446;9.988;2022-09-09T17:10:40;16.80;1.00
16388;DHT22;8303;53.446;9.988;2022-09-09T17:13:07;16.70;1.00
16388;DHT22;8303;53.446;9.988;2022-09-09T17:15:39;16.60;1.00
16388;DHT22;8303;53.446;9.988;2022-09-09T17:18:08;16.50;1.00
16388;DHT22;8303;53.446;9.988;2022-09-09T17:20:37;16.40;1.00
16388;DHT22;8303;53.446;9.988;2022-09-09T17:23:05;16.40;1.00
16388;DHT22;8303;53.446;9.988;2022-09-09T17:25:32;16.30;1.00
16388;DHT22;8303;53.446;9.988;2022-09-09T17:27:59;16.20;1.00
16388;DHT22;8303;53.446;9.988;2022-09-09T17:30:27;16.10;1.00
16388;DHT22;8303;53.446;9.988;2022-09-09T17:32:54;15.90;1.00
16388;DHT22;8303;53.446;9.988;2022-09-09T17:35:21;15.80;1.00
16388;DHT22;8303;53.446;9.988;2022-09-09T17:37:49;15.70;1.00
16388;DHT22;8303;53.446;9.988;2022-09-09T17:40:16;15.70;1.00
16388;DHT22;8303;53.446;9.988;2022-09-09T17:42:43;15.70;1.00
16388;DHT22;8303;53.446;9.988;2022-09-09T17:45:10;15.60;1.00
16388;DHT22;8303;53.446;9.988;2022-09-09T17:47:37;15.60;1.00
16388;DHT22;8303;53.446;9.988;2022-09-09T17:50:05;15.50;1.00
16388;DHT22;8303;53.446;9.988;2022-09-09T17:52:33;15.60;1.00
16388;DHT22;8303;53.446;9.988;2022-09-09T17:55:01;15.60;1.00
16388;DHT22;8303;53.446;9.988;2022-09-09T17:57:29;15.50;1.00
16388;DHT22;8303;53.446;9.988;2022-09-09T17:59:57;15.40;1.00
16388;DHT22;8303;53.446;9.988;2022-09-09T18:02:23;15.20;1.00
16388;DHT22;8303;53.446;9.988;2022-09-09T18:04:50;15.20;1.00
16388;DHT22;8303;53.446;9.988;2022-09-09T18:07:17;15.20;1.00
16388;DHT22;8303;53.446;9.988;2022-09-09T18:09:44;15.00;1.00
16388;DHT22;8303;53.446;9.988;2022-09-09T18:12:14;15.00;1.00
16388;DHT22;8303;53.446;9.988;2022-09-09T18:14:41;15.00;1.00
16388;DHT22;8303;53.446;9.988;2022-09-09T18:17:08;14.90;1.00
16388;DHT22;8303;53.446;9.988;2022-09-09T18:19:35;14.90;1.00
16388;DHT22;8303;53.446;9.988;2022-09-09T18:22:03;14.90;1.00
16388;DHT22;8303;53.446;9.988;2022-09-09T18:24:31;14.80;1.00
16388;DHT22;8303;53.446;9.988;2022-09-09T18:26:58;14.80;1.00
16388;DHT22;8303;53.446;9.988;2022-09-09T18:29:26;14.80;1.00
16388;DHT22;8303;53.446;9.988;2022-09-09T18:31:57;14.70;1.00
16388;DHT22;8303;53.446;9.988;2022-09-09T18:34:24;14.70;1.00
16388;DHT22;8303;53.446;9.988;2022-09-09T18:36:53;14.70;1.00
16388;DHT22;8303;53.446;9.988;2022-09-09T18:39:23;14.60;1.00
16388;DHT22;8303;53.446;9.988;2022-09-09T18:41:53;14.70;1.00
16388;DHT22;8303;53.446;9.988;2022-09-09T18:44:23;14.70;1.00
16388;DHT22;8303;53.446;9.988;2022-09-09T18:46:52;14.70;1.00
16388;DHT22;8303;53.446;9.988;2022-09-09T18:49:22;14.70;1.00
16388;DHT22;8303;53.446;9.988;2022-09-09T18:51:49;14.60;1.00
16388;DHT22;8303;53.446;9.988;2022-09-09T18:54:18;14.60;1.00
16388;DHT22;8303;53.446;9.988;2022-09-09T18:56:47;14.60;1.00
16388;DHT22;8303;53.446;9.988;2022-09-09T18:59:16;14.60;1.00
16388;DHT22;8303;53.446;9.988;2022-09-09T19:01:44;14.60;1.00
16388;DHT22;8303;53.446;9.988;2022-09-09T19:04:14;14.60;1.00
16388;DHT22;8303;53.446;9.988;2022-09-09T19:06:44;14.60;1.00
16388;DHT22;8303;53.446;9.988;2022-09-09T19:09:13;14.60;1.00
16388;DHT22;8303;53.446;9.988;2022-09-09T19:11:41;14.60;1.00
16388;DHT22;8303;53.446;9.988;2022-09-09T19:14:11;14.60;1.00
16388;DHT22;8303;53.446;9.988;2022-09-09T19:16:39;14.50;1.00
16388;DHT22;8303;53.446;9.988;2022-09-09T19:19:08;14.50;1.00
16388;DHT22;8303;53.446;9.988;2022-09-09T19:21:39;14.40;1.00
16388;DHT22;8303;53.446;9.988;2022-09-09T19:24:10;14.40;1.00
16388;DHT22;8303;53.446;9.988;2022-09-09T19:26:40;14.40;1.00
16388;DHT22;8303;53.446;9.988;2022-09-09T19:29:12;14.30;1.00
16388;DHT22;8303;53.446;9.988;2022-09-09T19:31:40;14.30;1.00
16388;DHT22;8303;53.446;9.988;2022-09-09T19:34:07;14.30;1.00
16388;DHT22;8303;53.446;9.988;2022-09-09T19:36:34;14.30;1.00
16388;DHT22;8303;53.446;9.988;2022-09-09T19:39:04;14.20;1.00
16388;DHT22;8303;53.446;9.988;2022-09-09T19:41:32;14.20;1.00
16388;DHT22;8303;53.446;9.988;2022-09-09T19:44:02;14.20;1.00
16388;DHT22;8303;53.446;9.988;2022-09-09T19:46:33;14.10;1.00
16388;DHT22;8303;53.446;9.988;2022-09-09T19:49:01;14.10;1.00
16388;DHT22;8303;53.446;9.988;2022-09-09T19:51:29;14.10;1.00
16388;DHT22;8303;53.446;9.988;2022-09-09T19:53:58;14.10;1.00
16388;DHT22;8303;53.446;9.988;2022-09-09T19:56:27;14.00;1.00
16388;DHT22;8303;53.446;9.988;2022-09-09T19:58:55;14.00;1.00
16388;DHT22;8303;53.446;9.988;2022-09-09T20:01:23;14.00;1.00
16388;DHT22;8303;53.446;9.988;2022-09-09T20:03:52;14.00;1.00
16388;DHT22;8303;53.446;9.988;2022-09-09T20:06:21;13.90;1.00
16388;DHT22;8303;53.446;9.988;2022-09-09T20:08:52;13.90;1.00
16388;DHT22;8303;53.446;9.988;2022-09-09T20:11:19;13.90;1.00
16388;DHT22;8303;53.446;9.988;2022-09-09T20:13:49;14.00;1.00
16388;DHT22;8303;53.446;9.988;2022-09-09T20:16:18;14.10;1.00
16388;DHT22;8303;53.446;9.988;2022-09-09T20:18:47;14.00;1.00
16388;DHT22;8303;53.446;9.988;2022-09-09T20:21:17;14.10;1.00
16388;DHT22;8303;53.446;9.988;2022-09-09T20:23:46;14.10;1.00
16388;DHT22;8303;53.446;9.988;2022-09-09T20:26:15;14.30;1.00
16388;DHT22;8303;53.446;9.988;2022-09-09T20:28:43;14.20;1.00
